sensor_id;sensor_type;location;lat;lon;timestamp;temperature;humidity
75010;DHT22;63564;46.840;18.336;2024-01-07T00:00:08;6.46;99.99
75010;DHT22;63564;46.840;18.336;2024-01-07T00:03:09;6.45;99.99
75010;DHT22;63564;46.840;18.336;2024-01-07T00:06:12;6.45;99.99
75010;DHT22;63564;46.840;18.336;2024-01-07T00:09:12;6.41;99.99
75010;DHT22;63564;46.840;18.336;2024-01-07T00:12:13;6.44;99.99
75010;DHT22;63564;46.840;18.336;2024-01-07T00:15:13;6.42;99.99
75010;DHT22;63564;46.840;18.336;2024-01-07T00:18:14;6.42;99.99
75010;DHT22;63564;46.840;18.336;2024-01-07T00:21:14;6.46;99.99
75010;DHT22;63564;46.840;18.336;2024-01-07T00:24:14;6.39;99.99
75010;DHT22;63564;46.840;18.336;2024-01-07T00:27:15;6.36;99.99
75010;DHT22;63564;46.840;18.336;2024-01-07T00:30:15;6.35;99.99
75010;DHT22;63564;46.840;18.336;2024-01-07T00:33:16;6.41;99.99
75010;DHT22;63564;46.840;18.336;2024-01-07T00:36:16;6.36;99.99
75010;DHT22;63564;46.840;18.336;2024-01-07T00:39:16;6.38;99.99
75010;DHT22;63564;46.840;18.336;2024-01-07T00:42:17;6.36;99.99
75010;DHT22;63564;46.840;18.336;2024-01-07T00:45:18;6.35;99.99
75010;DHT22;63564;46.840;18.336;2024-01-07T00:48:18;6.38;99.99
75010;DHT22;63564;46.840;18.336;2024-01-07T00:51:18;6.32;99.99
75010;DHT22;63564;46.840;18.336;2024-01-07T00:54:19;6.31;99.99
75010;DHT22;63564;46.840;18.336;2024-01-07T00:57:19;6.32;99.99
75010;DHT22;63564;46.840;18.336;2024-01-07T01:00:20;6.29;99.99
75010;DHT22;63564;46.840;18.336;2024-01-07T01:03:20;6.32;99.99
75010;DHT22;63564;46.840;18.336;2024-01-07T01:06:21;6.29;99.99
75010;DHT22;63564;46.840;18.336;2024-01-07T01:09:21;6.29;99.99
75010;DHT22;63564;46.840;18.336;2024-01-07T01:12:22;6.28;99.99
75010;DHT22;63564;46.840;18.336;2024-01-07T01:15:22;6.28;99.99
75010;DHT22;63564;46.840;18.336;2024-01-07T01:18:22;6.28;99.99
75010;DHT22;63564;46.840;18.336;2024-01-07T01:21:23;6.28;99.99
75010;DHT22;63564;46.840;18.336;2024-01-07T01:24:23;6.26;99.99
75010;DHT22;63564;46.840;18.336;2024-01-07T01:27:23;6.28;99.99
75010;DHT22;63564;46.840;18.336;2024-01-07T01:30:24;6.25;99.99
75010;DHT22;63564;46.840;18.336;2024-01-07T01:33:24;6.26;99.99
75010;DHT22;63564;46.840;18.336;2024-01-07T01:36:24;6.25;99.99
75010;DHT22;63564;46.840;18.336;2024-01-07T01:39:25;6.26;99.99
75010;DHT22;63564;46.840;18.336;2024-01-07T01:42:25;6.26;99.99
75010;DHT22;63564;46.840;18.336;2024-01-07T01:45:25;6.24;99.99
75010;DHT22;63564;46.840;18.336;2024-01-07T01:48:26;6.20;99.99
75010;DHT22;63564;46.840;18.336;2024-01-07T01:51:28;6.24;99.99
75010;DHT22;63564;46.840;18.336;2024-01-07T01:54:29;6.22;99.99
75010;DHT22;63564;46.840;18.336;2024-01-07T01:57:33;6.21;99.99
75010;DHT22;63564;46.840;18.336;2024-01-07T02:00:36;6.22;99.99
75010;DHT22;63564;46.840;18.336;2024-01-07T02:03:37;6.18;99.99
75010;DHT22;63564;46.840;18.336;2024-01-07T02:06:38;6.21;99.99
75010;DHT22;63564;46.840;18.336;2024-01-07T02:09:38;6.25;99.99
75010;DHT22;63564;46.840;18.336;2024-01-07T02:12:40;6.20;99.99
75010;DHT22;63564;46.840;18.336;2024-01-07T02:15:40;6.22;99.99
75010;DHT22;63564;46.840;18.336;2024-01-07T02:18:43;6.17;99.99
75010;DHT22;63564;46.840;18.336;2024-01-07T02:21:43;6.20;99.99
75010;DHT22;63564;46.840;18.336;2024-01-07T02:24:44;6.17;99.99
75010;DHT22;63564;46.840;18.336;2024-01-07T02:27:44;6.14;99.99
75010;DHT22;63564;46.840;18.336;2024-01-07T02:30:44;6.15;99.99
75010;DHT22;63564;46.840;18.336;2024-01-07T02:33:45;6.11;99.99
75010;DHT22;63564;46.840;18.336;2024-01-07T02:36:45;6.13;99.99
75010;DHT22;63564;46.840;18.336;2024-01-07T02:39:46;6.13;99.99
75010;DHT22;63564;46.840;18.336;2024-01-07T02:42:46;6.15;99.99
75010;DHT22;63564;46.840;18.336;2024-01-07T02:45:46;6.15;99.99
75010;DHT22;63564;46.840;18.336;2024-01-07T02:48:47;6.14;99.99
75010;DHT22;63564;46.840;18.336;2024-01-07T02:51:47;6.11;99.99
75010;DHT22;63564;46.840;18.336;2024-01-07T02:54:49;6.13;99.99
75010;DHT22;63564;46.840;18.336;2024-01-07T02:57:50;6.14;99.99
75010;DHT22;63564;46.840;18.336;2024-01-07T03:00:50;6.17;99.99
75010;DHT22;63564;46.840;18.336;2024-01-07T03:03:50;6.17;99.99
75010;DHT22;63564;46.840;18.336;2024-01-07T03:06:51;6.20;99.99
75010;DHT22;63564;46.840;18.336;2024-01-07T03:09:51;6.17;99.99
75010;DHT22;63564;46.840;18.336;2024-01-07T03:12:51;6.20;99.99
75010;DHT22;63564;46.840;18.336;2024-01-07T03:15:52;6.18;99.99
75010;DHT22;63564;46.840;18.336;2024-01-07T03:18:52;6.18;99.99
75010;DHT22;63564;46.840;18.336;2024-01-07T03:21:53;6.18;99.99
75010;DHT22;63564;46.840;18.336;2024-01-07T03:24:53;6.18;99.99
75010;DHT22;63564;46.840;18.336;2024-01-07T03:27:53;6.22;99.99
75010;DHT22;63564;46.840;18.336;2024-01-07T03:30:54;6.22;99.99
75010;DHT22;63564;46.840;18.336;2024-01-07T03:33:54;6.26;99.99
75010;DHT22;63564;46.840;18.336;2024-01-07T03:36:55;6.22;99.99
75010;DHT22;63564;46.840;18.336;2024-01-07T03:39:55;6.21;99.99
75010;DHT22;63564;46.840;18.336;2024-01-07T03:42:55;6.24;99.99
75010;DHT22;63564;46.840;18.336;2024-01-07T03:45:56;6.20;99.99
75010;DHT22;63564;46.840;18.336;2024-01-07T03:48:56;6.18;99.99
75010;DHT22;63564;46.840;18.336;2024-01-07T03:51:57;6.20;99.99
75010;DHT22;63564;46.840;18.336;2024-01-07T03:54:57;6.17;99.99
75010;DHT22;63564;46.840;18.336;2024-01-07T03:57:57;6.17;99.99
75010;DHT22;63564;46.840;18.336;2024-01-07T04:00:58;6.20;99.99
75010;DHT22;63564;46.840;18.336;2024-01-07T04:03:58;6.20;99.99
75010;DHT22;63564;46.840;18.336;2024-01-07T04:06:58;6.18;99.99
75010;DHT22;63564;46.840;18.336;2024-01-07T04:09:59;6.20;99.99
75010;DHT22;63564;46.840;18.336;2024-01-07T04:12:59;6.18;99.99
75010;DHT22;63564;46.840;18.336;2024-01-07T04:15:59;6.20;99.99
75010;DHT22;63564;46.840;18.336;2024-01-07T04:19:00;6.18;99.99
75010;DHT22;63564;46.840;18.336;2024-01-07T04:22:00;6.22;99.99
75010;DHT22;63564;46.840;18.336;2024-01-07T04:25:00;6.21;99.99
75010;DHT22;63564;46.840;18.336;2024-01-07T04:28:01;6.24;99.99
75010;DHT22;63564;46.840;18.336;2024-01-07T04:31:01;6.24;99.99
75010;DHT22;63564;46.840;18.336;2024-01-07T04:34:01;6.22;99.99
75010;DHT22;63564;46.840;18.336;2024-01-07T04:37:02;6.22;99.99
75010;DHT22;63564;46.840;18.336;2024-01-07T04:40:02;6.21;99.99
75010;DHT22;63564;46.840;18.336;2024-01-07T04:43:03;6.25;99.99
75010;DHT22;63564;46.840;18.336;2024-01-07T04:46:03;6.21;99.99
75010;DHT22;63564;46.840;18.336;2024-01-07T04:49:04;6.20;99.99
75010;DHT22;63564;46.840;18.336;2024-01-07T04:52:05;6.18;99.99
75010;DHT22;63564;46.840;18.336;2024-01-07T04:55:06;6.17;99.99
75010;DHT22;63564;46.840;18.336;2024-01-07T04:58:06;6.15;99.99
75010;DHT22;63564;46.840;18.336;2024-01-07T05:01:07;6.17;99.99
75010;DHT22;63564;46.840;18.336;2024-01-07T05:04:07;6.17;99.99
75010;DHT22;63564;46.840;18.336;2024-01-07T05:07:07;6.15;99.99
75010;DHT22;63564;46.840;18.336;2024-01-07T05:10:08;6.13;99.99
75010;DHT22;63564;46.840;18.336;2024-01-07T05:13:08;6.17;99.99
75010;DHT22;63564;46.840;18.336;2024-01-07T05:16:09;6.17;99.99
75010;DHT22;63564;46.840;18.336;2024-01-07T05:19:09;6.15;99.99
75010;DHT22;63564;46.840;18.336;2024-01-07T05:22:09;6.21;99.99
75010;DHT22;63564;46.840;18.336;2024-01-07T05:25:10;6.22;99.99
75010;DHT22;63564;46.840;18.336;2024-01-07T05:28:11;6.11;99.99
75010;DHT22;63564;46.840;18.336;2024-01-07T05:31:18;6.11;99.99
75010;DHT22;63564;46.840;18.336;2024-01-07T05:34:18;6.07;99.99
75010;DHT22;63564;46.840;18.336;2024-01-07T05:37:19;6.13;99.99
75010;DHT22;63564;46.840;18.336;2024-01-07T05:40:19;6.20;99.99
75010;DHT22;63564;46.840;18.336;2024-01-07T05:43:20;6.04;99.91
75010;DHT22;63564;46.840;18.336;2024-01-07T05:46:20;6.03;99.99
75010;DHT22;63564;46.840;18.336;2024-01-07T05:49:20;5.91;99.77
75010;DHT22;63564;46.840;18.336;2024-01-07T05:52:21;5.59;99.99
75010;DHT22;63564;46.840;18.336;2024-01-07T05:55:21;5.74;99.93
75010;DHT22;63564;46.840;18.336;2024-01-07T05:58:21;5.58;99.61
75010;DHT22;63564;46.840;18.336;2024-01-07T06:01:22;5.49;99.59
75010;DHT22;63564;46.840;18.336;2024-01-07T06:04:22;5.46;99.99
75010;DHT22;63564;46.840;18.336;2024-01-07T06:07:23;5.46;99.98
75010;DHT22;63564;46.840;18.336;2024-01-07T06:10:23;5.40;99.82
75010;DHT22;63564;46.840;18.336;2024-01-07T06:13:23;5.43;99.49
75010;DHT22;63564;46.840;18.336;2024-01-07T06:16:24;5.32;99.99
75010;DHT22;63564;46.840;18.336;2024-01-07T06:19:24;5.39;99.67
75010;DHT22;63564;46.840;18.336;2024-01-07T06:22:24;5.38;99.74
75010;DHT22;63564;46.840;18.336;2024-01-07T06:25:25;5.24;99.43
75010;DHT22;63564;46.840;18.336;2024-01-07T06:28:26;5.29;99.45
75010;DHT22;63564;46.840;18.336;2024-01-07T06:31:26;5.27;99.40
75010;DHT22;63564;46.840;18.336;2024-01-07T06:34:27;5.28;99.45
75010;DHT22;63564;46.840;18.336;2024-01-07T06:37:27;5.28;98.92
75010;DHT22;63564;46.840;18.336;2024-01-07T06:40:29;5.27;98.82
75010;DHT22;63564;46.840;18.336;2024-01-07T06:43:29;5.15;98.69
75010;DHT22;63564;46.840;18.336;2024-01-07T06:46:30;5.17;98.77
75010;DHT22;63564;46.840;18.336;2024-01-07T06:49:30;5.20;98.65
75010;DHT22;63564;46.840;18.336;2024-01-07T06:52:30;5.21;98.97
75010;DHT22;63564;46.840;18.336;2024-01-07T06:55:31;5.18;98.75
75010;DHT22;63564;46.840;18.336;2024-01-07T06:58:31;5.14;98.41
75010;DHT22;63564;46.840;18.336;2024-01-07T07:01:32;5.12;98.16
75010;DHT22;63564;46.840;18.336;2024-01-07T07:04:33;5.12;98.50
75010;DHT22;63564;46.840;18.336;2024-01-07T07:07:33;5.14;97.83
75010;DHT22;63564;46.840;18.336;2024-01-07T07:10:33;5.12;98.19
75010;DHT22;63564;46.840;18.336;2024-01-07T07:13:34;5.07;97.61
75010;DHT22;63564;46.840;18.336;2024-01-07T07:16:34;5.11;97.45
75010;DHT22;63564;46.840;18.336;2024-01-07T07:19:35;5.05;97.44
75010;DHT22;63564;46.840;18.336;2024-01-07T07:22:35;5.08;97.69
75010;DHT22;63564;46.840;18.336;2024-01-07T07:25:36;5.10;97.72
75010;DHT22;63564;46.840;18.336;2024-01-07T07:28:36;5.10;98.04
75010;DHT22;63564;46.840;18.336;2024-01-07T07:31:36;5.07;97.48
75010;DHT22;63564;46.840;18.336;2024-01-07T07:34:37;5.01;97.21
75010;DHT22;63564;46.840;18.336;2024-01-07T07:37:37;5.02;97.09
75010;DHT22;63564;46.840;18.336;2024-01-07T07:40:38;5.01;97.40
75010;DHT22;63564;46.840;18.336;2024-01-07T07:43:38;4.97;96.94
75010;DHT22;63564;46.840;18.336;2024-01-07T07:46:39;4.90;97.05
75010;DHT22;63564;46.840;18.336;2024-01-07T07:49:39;4.85;97.55
75010;DHT22;63564;46.840;18.336;2024-01-07T07:52:43;4.84;97.53
75010;DHT22;63564;46.840;18.336;2024-01-07T07:55:44;4.76;97.26
75010;DHT22;63564;46.840;18.336;2024-01-07T07:58:44;4.72;97.41
75010;DHT22;63564;46.840;18.336;2024-01-07T08:01:45;4.72;97.40
75010;DHT22;63564;46.840;18.336;2024-01-07T08:04:46;4.69;97.39
75010;DHT22;63564;46.840;18.336;2024-01-07T08:07:46;4.66;97.24
75010;DHT22;63564;46.840;18.336;2024-01-07T08:10:46;4.67;97.54
75010;DHT22;63564;46.840;18.336;2024-01-07T08:13:47;4.72;97.71
75010;DHT22;63564;46.840;18.336;2024-01-07T08:16:47;4.69;97.73
75010;DHT22;63564;46.840;18.336;2024-01-07T08:19:48;4.73;98.08
75010;DHT22;63564;46.840;18.336;2024-01-07T08:22:48;4.70;97.62
75010;DHT22;63564;46.840;18.336;2024-01-07T08:25:48;4.60;97.14
75010;DHT22;63564;46.840;18.336;2024-01-07T08:28:51;4.63;97.71
75010;DHT22;63564;46.840;18.336;2024-01-07T08:31:52;4.50;96.98
75010;DHT22;63564;46.840;18.336;2024-01-07T08:34:53;4.41;96.75
75010;DHT22;63564;46.840;18.336;2024-01-07T08:37:53;4.34;97.36
75010;DHT22;63564;46.840;18.336;2024-01-07T08:40:53;4.24;96.35
75010;DHT22;63564;46.840;18.336;2024-01-07T08:43:54;4.24;96.32
75010;DHT22;63564;46.840;18.336;2024-01-07T08:46:54;4.21;96.82
75010;DHT22;63564;46.840;18.336;2024-01-07T08:49:54;4.21;96.74
75010;DHT22;63564;46.840;18.336;2024-01-07T08:52:55;4.21;96.55
75010;DHT22;63564;46.840;18.336;2024-01-07T08:55:55;4.15;96.91
75010;DHT22;63564;46.840;18.336;2024-01-07T08:58:56;4.16;96.18
75010;DHT22;63564;46.840;18.336;2024-01-07T09:01:56;4.08;96.37
75010;DHT22;63564;46.840;18.336;2024-01-07T09:04:56;4.07;96.17
75010;DHT22;63564;46.840;18.336;2024-01-07T09:07:58;4.07;96.94
75010;DHT22;63564;46.840;18.336;2024-01-07T09:10:58;4.02;96.58
75010;DHT22;63564;46.840;18.336;2024-01-07T09:14:00;3.97;96.26
75010;DHT22;63564;46.840;18.336;2024-01-07T09:17:00;3.90;96.50
75010;DHT22;63564;46.840;18.336;2024-01-07T09:20:01;3.86;97.62
75010;DHT22;63564;46.840;18.336;2024-01-07T09:23:02;3.90;97.16
75010;DHT22;63564;46.840;18.336;2024-01-07T09:26:02;3.90;96.44
75010;DHT22;63564;46.840;18.336;2024-01-07T09:29:03;3.77;96.87
75010;DHT22;63564;46.840;18.336;2024-01-07T09:32:03;3.87;97.46
75010;DHT22;63564;46.840;18.336;2024-01-07T09:35:04;3.81;96.71
75010;DHT22;63564;46.840;18.336;2024-01-07T09:38:05;3.74;97.11
75010;DHT22;63564;46.840;18.336;2024-01-07T09:41:06;3.70;97.13
75010;DHT22;63564;46.840;18.336;2024-01-07T09:44:08;3.76;97.51
75010;DHT22;63564;46.840;18.336;2024-01-07T09:47:13;3.78;97.57
75010;DHT22;63564;46.840;18.336;2024-01-07T09:50:14;3.71;97.17
75010;DHT22;63564;46.840;18.336;2024-01-07T09:53:18;3.64;96.51
75010;DHT22;63564;46.840;18.336;2024-01-07T09:56:24;3.59;97.26
75010;DHT22;63564;46.840;18.336;2024-01-07T09:59:26;3.56;97.05
75010;DHT22;63564;46.840;18.336;2024-01-07T10:02:28;3.48;96.99
75010;DHT22;63564;46.840;18.336;2024-01-07T10:05:28;3.49;97.59
75010;DHT22;63564;46.840;18.336;2024-01-07T10:08:29;3.44;97.44
75010;DHT22;63564;46.840;18.336;2024-01-07T10:11:29;3.48;98.12
75010;DHT22;63564;46.840;18.336;2024-01-07T10:14:29;3.44;97.99
75010;DHT22;63564;46.840;18.336;2024-01-07T10:17:30;3.48;97.76
75010;DHT22;63564;46.840;18.336;2024-01-07T10:20:34;3.49;97.73
75010;DHT22;63564;46.840;18.336;2024-01-07T10:23:35;3.44;97.29
75010;DHT22;63564;46.840;18.336;2024-01-07T10:26:39;3.39;97.31
75010;DHT22;63564;46.840;18.336;2024-01-07T10:29:39;3.36;97.50
75010;DHT22;63564;46.840;18.336;2024-01-07T10:32:41;3.33;97.44
75010;DHT22;63564;46.840;18.336;2024-01-07T10:35:52;3.35;97.47
75010;DHT22;63564;46.840;18.336;2024-01-07T10:38:56;3.29;96.83
75010;DHT22;63564;46.840;18.336;2024-01-07T10:41:57;3.35;97.19
75010;DHT22;63564;46.840;18.336;2024-01-07T10:45:01;3.26;96.68
75010;DHT22;63564;46.840;18.336;2024-01-07T10:48:04;3.18;96.35
75010;DHT22;63564;46.840;18.336;2024-01-07T10:51:07;3.07;96.28
75010;DHT22;63564;46.840;18.336;2024-01-07T10:54:08;3.09;96.96
75010;DHT22;63564;46.840;18.336;2024-01-07T11:00:34;3.04;95.98
75010;DHT22;63564;46.840;18.336;2024-01-07T11:03:42;3.04;96.47
75010;DHT22;63564;46.840;18.336;2024-01-07T11:06:53;2.97;95.89
75010;DHT22;63564;46.840;18.336;2024-01-07T11:10:18;3.00;95.94
75010;DHT22;63564;46.840;18.336;2024-01-07T11:13:36;3.02;96.25
75010;DHT22;63564;46.840;18.336;2024-01-07T11:16:42;3.04;96.54
75010;DHT22;63564;46.840;18.336;2024-01-07T11:19:54;2.98;96.47
75010;DHT22;63564;46.840;18.336;2024-01-07T11:26:29;2.94;96.91
75010;DHT22;63564;46.840;18.336;2024-01-07T11:29:32;2.87;96.66
75010;DHT22;63564;46.840;18.336;2024-01-07T11:32:35;2.81;96.01
75010;DHT22;63564;46.840;18.336;2024-01-07T11:35:56;2.76;96.18
75010;DHT22;63564;46.840;18.336;2024-01-07T11:38:56;2.73;97.55
75010;DHT22;63564;46.840;18.336;2024-01-07T11:41:57;2.73;96.14
75010;DHT22;63564;46.840;18.336;2024-01-07T11:44:58;2.70;96.64
75010;DHT22;63564;46.840;18.336;2024-01-07T11:47:58;2.67;95.68
75010;DHT22;63564;46.840;18.336;2024-01-07T11:50:59;2.67;96.22
75010;DHT22;63564;46.840;18.336;2024-01-07T11:54:00;2.70;96.52
75010;DHT22;63564;46.840;18.336;2024-01-07T11:57:01;2.70;96.51
75010;DHT22;63564;46.840;18.336;2024-01-07T12:00:02;2.61;96.53
75010;DHT22;63564;46.840;18.336;2024-01-07T12:03:04;2.58;95.47
75010;DHT22;63564;46.840;18.336;2024-01-07T12:06:04;2.53;96.39
75010;DHT22;63564;46.840;18.336;2024-01-07T12:09:05;2.56;96.63
75010;DHT22;63564;46.840;18.336;2024-01-07T12:12:06;2.54;96.90
75010;DHT22;63564;46.840;18.336;2024-01-07T12:15:07;2.54;96.24
75010;DHT22;63564;46.840;18.336;2024-01-07T12:18:09;2.49;95.48
75010;DHT22;63564;46.840;18.336;2024-01-07T12:21:09;2.47;95.86
75010;DHT22;63564;46.840;18.336;2024-01-07T12:24:10;2.46;96.24
75010;DHT22;63564;46.840;18.336;2024-01-07T12:27:10;2.42;95.52
75010;DHT22;63564;46.840;18.336;2024-01-07T12:30:11;2.42;95.62
75010;DHT22;63564;46.840;18.336;2024-01-07T12:33:11;2.47;96.47
75010;DHT22;63564;46.840;18.336;2024-01-07T12:36:12;2.57;96.40
75010;DHT22;63564;46.840;18.336;2024-01-07T12:39:12;2.39;95.95
75010;DHT22;63564;46.840;18.336;2024-01-07T12:42:12;2.49;95.37
75010;DHT22;63564;46.840;18.336;2024-01-07T12:45:14;2.42;95.18
75010;DHT22;63564;46.840;18.336;2024-01-07T12:48:15;2.46;96.26
75010;DHT22;63564;46.840;18.336;2024-01-07T12:51:15;2.49;95.60
75010;DHT22;63564;46.840;18.336;2024-01-07T12:54:16;2.39;95.71
75010;DHT22;63564;46.840;18.336;2024-01-07T12:57:16;2.43;95.10
75010;DHT22;63564;46.840;18.336;2024-01-07T13:00:17;2.33;94.88
75010;DHT22;63564;46.840;18.336;2024-01-07T13:03:18;2.30;94.80
75010;DHT22;63564;46.840;18.336;2024-01-07T13:06:19;2.22;94.51
75010;DHT22;63564;46.840;18.336;2024-01-07T13:09:19;2.30;95.30
75010;DHT22;63564;46.840;18.336;2024-01-07T13:12:20;2.32;95.41
75010;DHT22;63564;46.840;18.336;2024-01-07T13:15:20;2.25;94.21
75010;DHT22;63564;46.840;18.336;2024-01-07T13:18:20;2.16;94.79
75010;DHT22;63564;46.840;18.336;2024-01-07T13:21:21;2.11;94.17
75010;DHT22;63564;46.840;18.336;2024-01-07T13:24:21;2.04;94.62
75010;DHT22;63564;46.840;18.336;2024-01-07T13:27:22;1.99;94.78
75010;DHT22;63564;46.840;18.336;2024-01-07T13:30:23;2.02;94.52
75010;DHT22;63564;46.840;18.336;2024-01-07T13:33:24;1.99;95.42
75010;DHT22;63564;46.840;18.336;2024-01-07T13:36:24;2.04;95.14
75010;DHT22;63564;46.840;18.336;2024-01-07T13:39:24;2.01;94.61
75010;DHT22;63564;46.840;18.336;2024-01-07T13:42:25;1.98;94.94
75010;DHT22;63564;46.840;18.336;2024-01-07T13:45:26;1.93;94.91
75010;DHT22;63564;46.840;18.336;2024-01-07T13:48:26;1.97;95.66
75010;DHT22;63564;46.840;18.336;2024-01-07T13:51:27;1.91;95.26
75010;DHT22;63564;46.840;18.336;2024-01-07T13:54:27;1.98;95.80
75010;DHT22;63564;46.840;18.336;2024-01-07T13:57:27;1.91;96.28
75010;DHT22;63564;46.840;18.336;2024-01-07T14:00:28;1.87;96.35
75010;DHT22;63564;46.840;18.336;2024-01-07T14:03:28;1.80;96.54
75010;DHT22;63564;46.840;18.336;2024-01-07T14:06:33;1.77;96.82
75010;DHT22;63564;46.840;18.336;2024-01-07T14:09:33;1.73;96.13
75010;DHT22;63564;46.840;18.336;2024-01-07T14:12:34;1.68;96.73
75010;DHT22;63564;46.840;18.336;2024-01-07T14:15:34;1.64;96.28
75010;DHT22;63564;46.840;18.336;2024-01-07T14:18:35;1.57;96.70
75010;DHT22;63564;46.840;18.336;2024-01-07T14:21:35;1.56;96.18
75010;DHT22;63564;46.840;18.336;2024-01-07T14:24:35;1.51;97.11
75010;DHT22;63564;46.840;18.336;2024-01-07T14:27:36;1.49;96.31
75010;DHT22;63564;46.840;18.336;2024-01-07T14:30:36;1.42;96.80
75010;DHT22;63564;46.840;18.336;2024-01-07T14:33:37;1.40;97.28
75010;DHT22;63564;46.840;18.336;2024-01-07T14:36:40;1.39;97.35
75010;DHT22;63564;46.840;18.336;2024-01-07T14:39:44;1.33;96.56
75010;DHT22;63564;46.840;18.336;2024-01-07T14:42:45;1.29;96.85
75010;DHT22;63564;46.840;18.336;2024-01-07T14:45:45;1.25;96.29
75010;DHT22;63564;46.840;18.336;2024-01-07T14:48:46;1.15;96.20
75010;DHT22;63564;46.840;18.336;2024-01-07T14:51:46;1.08;96.63
75010;DHT22;63564;46.840;18.336;2024-01-07T14:54:47;1.09;96.71
75010;DHT22;63564;46.840;18.336;2024-01-07T14:57:47;1.11;95.67
75010;DHT22;63564;46.840;18.336;2024-01-07T15:00:49;1.09;95.75
75010;DHT22;63564;46.840;18.336;2024-01-07T15:03:49;1.16;95.72
75010;DHT22;63564;46.840;18.336;2024-01-07T15:06:50;1.11;95.33
75010;DHT22;63564;46.840;18.336;2024-01-07T15:09:51;1.08;95.34
75010;DHT22;63564;46.840;18.336;2024-01-07T15:12:51;1.02;95.01
75010;DHT22;63564;46.840;18.336;2024-01-07T15:15:51;0.95;95.11
75010;DHT22;63564;46.840;18.336;2024-01-07T15:18:52;0.91;95.12
75010;DHT22;63564;46.840;18.336;2024-01-07T15:21:52;0.88;95.73
75010;DHT22;63564;46.840;18.336;2024-01-07T15:24:53;0.95;95.78
75010;DHT22;63564;46.840;18.336;2024-01-07T15:27:53;0.88;94.86
75010;DHT22;63564;46.840;18.336;2024-01-07T15:30:54;0.88;95.58
75010;DHT22;63564;46.840;18.336;2024-01-07T15:33:55;0.84;95.14
75010;DHT22;63564;46.840;18.336;2024-01-07T15:36:55;0.74;95.39
75010;DHT22;63564;46.840;18.336;2024-01-07T15:39:55;0.74;95.64
75010;DHT22;63564;46.840;18.336;2024-01-07T15:42:56;0.71;95.32
75010;DHT22;63564;46.840;18.336;2024-01-07T15:45:57;0.73;94.89
75010;DHT22;63564;46.840;18.336;2024-01-07T15:48:58;0.68;95.03
75010;DHT22;63564;46.840;18.336;2024-01-07T15:51:58;0.68;95.28
75010;DHT22;63564;46.840;18.336;2024-01-07T15:54:59;0.68;94.44
75010;DHT22;63564;46.840;18.336;2024-01-07T15:57:59;0.65;94.52
75010;DHT22;63564;46.840;18.336;2024-01-07T16:01:00;0.65;94.77
75010;DHT22;63564;46.840;18.336;2024-01-07T16:04:03;0.63;93.90
75010;DHT22;63564;46.840;18.336;2024-01-07T16:07:03;0.61;93.83
75010;DHT22;63564;46.840;18.336;2024-01-07T16:10:04;0.61;93.87
75010;DHT22;63564;46.840;18.336;2024-01-07T16:13:05;0.64;93.62
75010;DHT22;63564;46.840;18.336;2024-01-07T16:16:07;0.61;93.41
75010;DHT22;63564;46.840;18.336;2024-01-07T16:19:08;0.58;93.21
75010;DHT22;63564;46.840;18.336;2024-01-07T16:22:11;0.63;93.75
75010;DHT22;63564;46.840;18.336;2024-01-07T16:25:13;0.57;92.23
75010;DHT22;63564;46.840;18.336;2024-01-07T16:28:14;0.53;92.95
75010;DHT22;63564;46.840;18.336;2024-01-07T16:31:14;0.60;92.31
75010;DHT22;63564;46.840;18.336;2024-01-07T16:34:14;0.58;92.44
75010;DHT22;63564;46.840;18.336;2024-01-07T16:37:15;0.56;92.07
75010;DHT22;63564;46.840;18.336;2024-01-07T16:40:15;0.58;91.82
75010;DHT22;63564;46.840;18.336;2024-01-07T16:43:16;0.52;92.45
75010;DHT22;63564;46.840;18.336;2024-01-07T16:46:16;0.53;91.98
75010;DHT22;63564;46.840;18.336;2024-01-07T16:49:17;0.50;91.67
75010;DHT22;63564;46.840;18.336;2024-01-07T16:52:17;0.52;91.69
75010;DHT22;63564;46.840;18.336;2024-01-07T16:55:18;0.52;91.86
75010;DHT22;63564;46.840;18.336;2024-01-07T16:58:18;0.53;91.49
75010;DHT22;63564;46.840;18.336;2024-01-07T17:01:20;0.50;92.01
75010;DHT22;63564;46.840;18.336;2024-01-07T17:04:20;0.49;91.97
75010;DHT22;63564;46.840;18.336;2024-01-07T17:07:21;0.49;92.01
75010;DHT22;63564;46.840;18.336;2024-01-07T17:10:21;0.47;92.05
75010;DHT22;63564;46.840;18.336;2024-01-07T17:13:22;0.44;92.53
75010;DHT22;63564;46.840;18.336;2024-01-07T17:16:22;0.43;90.97
75010;DHT22;63564;46.840;18.336;2024-01-07T17:19:28;0.42;90.95
75010;DHT22;63564;46.840;18.336;2024-01-07T17:22:28;0.40;91.23
75010;DHT22;63564;46.840;18.336;2024-01-07T17:25:28;0.43;91.54
75010;DHT22;63564;46.840;18.336;2024-01-07T17:28:29;0.42;90.32
75010;DHT22;63564;46.840;18.336;2024-01-07T17:31:30;0.39;89.88
75010;DHT22;63564;46.840;18.336;2024-01-07T17:34:30;0.37;90.86
75010;DHT22;63564;46.840;18.336;2024-01-07T17:37:31;0.40;90.79
75010;DHT22;63564;46.840;18.336;2024-01-07T17:40:34;0.43;90.34
75010;DHT22;63564;46.840;18.336;2024-01-07T17:43:34;0.42;90.10
75010;DHT22;63564;46.840;18.336;2024-01-07T17:46:34;0.47;89.93
75010;DHT22;63564;46.840;18.336;2024-01-07T17:49:35;0.40;90.13
75010;DHT22;63564;46.840;18.336;2024-01-07T17:52:36;0.42;89.48
75010;DHT22;63564;46.840;18.336;2024-01-07T17:55:36;0.43;89.16
75010;DHT22;63564;46.840;18.336;2024-01-07T17:58:37;0.44;89.57
75010;DHT22;63564;46.840;18.336;2024-01-07T18:01:38;0.39;89.02
75010;DHT22;63564;46.840;18.336;2024-01-07T18:04:42;0.35;89.26
75010;DHT22;63564;46.840;18.336;2024-01-07T18:07:43;0.36;89.63
75010;DHT22;63564;46.840;18.336;2024-01-07T18:10:43;0.39;89.23
75010;DHT22;63564;46.840;18.336;2024-01-07T18:13:44;0.37;89.46
75010;DHT22;63564;46.840;18.336;2024-01-07T18:16:44;0.39;89.70
75010;DHT22;63564;46.840;18.336;2024-01-07T18:19:44;0.39;88.81
75010;DHT22;63564;46.840;18.336;2024-01-07T18:22:45;0.30;88.27
75010;DHT22;63564;46.840;18.336;2024-01-07T18:25:45;0.29;88.79
75010;DHT22;63564;46.840;18.336;2024-01-07T18:28:48;0.37;89.56
75010;DHT22;63564;46.840;18.336;2024-01-07T18:31:48;0.32;88.80
75010;DHT22;63564;46.840;18.336;2024-01-07T18:34:49;0.33;89.41
75010;DHT22;63564;46.840;18.336;2024-01-07T18:37:50;0.33;88.66
75010;DHT22;63564;46.840;18.336;2024-01-07T18:40:51;0.32;88.25
75010;DHT22;63564;46.840;18.336;2024-01-07T18:43:52;0.30;87.91
75010;DHT22;63564;46.840;18.336;2024-01-07T18:46:52;0.33;88.49
75010;DHT22;63564;46.840;18.336;2024-01-07T18:49:53;0.27;87.87
75010;DHT22;63564;46.840;18.336;2024-01-07T18:52:54;0.35;89.03
75010;DHT22;63564;46.840;18.336;2024-01-07T18:55:55;0.37;88.76
75010;DHT22;63564;46.840;18.336;2024-01-07T18:58:55;0.35;88.24
75010;DHT22;63564;46.840;18.336;2024-01-07T19:01:56;0.26;88.69
75010;DHT22;63564;46.840;18.336;2024-01-07T19:04:56;0.26;87.58
75010;DHT22;63564;46.840;18.336;2024-01-07T19:07:57;0.25;87.84